This is the latest recevied weather packets stored in our database for station/object WC4PEM-12. If no packets are shown the sender has not sent any weather packets the latest 10 day(s).
| Time | Temp. | Humidity | Pressure | Rain* | Wind** | Luminosity | Snow |
|---|---|---|---|---|---|---|---|
| 1777840081 | 25° C | 69% | 1015.4 hPa | 0 mm | - | - | - |
| 1777840056 | 25° C | 70% | 1015.3 hPa | 0 mm | - | - | - |
| 1777839781 | 25° C | 70% | 1015.3 hPa | 0 mm | - | - | - |
| 1777839481 | 25° C | 70% | 1015.3 hPa | 0 mm | - | - | - |
| 1777839181 | 25° C | 70% | 1015.6 hPa | 0 mm | - | - | - |
| 1777838149 | 23.89° C | 72% | 1016 hPa | 0 mm | - | - | - |
| 1777837651 | 25° C | 71% | 1015.7 hPa | 0 mm | - | - | - |
| 1777836481 | 23.89° C | 72% | 1016 hPa | 0 mm | - | - | - |
| 1777836181 | 23.89° C | 72% | 1016.3 hPa | 0 mm | - | - | - |
| 1777833472 | 23.89° C | 75% | 1016.8 hPa | 0 mm | - | - | - |
| 1777833181 | 23.89° C | 75% | 1016.8 hPa | 0 mm | - | - | - |
| 1777833124 | 22.22° C | 82% | 1017.4 hPa | 0 mm | - | - | - |
| 1777832581 | 22.78° C | 79% | 1017.1 hPa | 0 mm | - | - | - |
| 1777831681 | 22.22° C | 82% | 1017.4 hPa | 0 mm | - | - | - |
| 1777826520 | 21.67° C | 81% | 1017.6 hPa | 0 mm | - | - | - |
| 1777823799 | 20.56° C | 87% | 1017.9 hPa | 0 mm | - | - | - |
| 1777822681 | 20° C | 88% | 1018.1 hPa | 0 mm | - | - | - |
| 1777821782 | 20° C | 88% | 1018 hPa | 0 mm | - | - | - |
| 1777821182 | 19.44° C | 90% | 1018 hPa | 0 mm | - | - | - |
| 1777820882 | 19.44° C | 91% | 1018.1 hPa | 0 mm | - | - | - |
| 1777820582 | 19.44° C | 90% | 1018 hPa | 0 mm | - | - | - |
| 1777820296 | 19.44° C | 92% | 1018 hPa | 0 mm | - | - | - |
| 1777819699 | 18.89° C | 92% | 1017.7 hPa | 0 mm | - | - | - |
| 1777819682 | 18.89° C | 91% | 1017.9 hPa | 0 mm | - | - | - |
| 1777819382 | 18.89° C | 92% | 1017.7 hPa | 0 mm | - | - | - |
* Rain latest hour (hover to see other rain measurements)
** Current wind speed in m/s (hover to see current wind gust speed)